sensor_id;sensor_type;location;lat;lon;timestamp;pressure;altitude;pressure_sealevel;temperature;humidity
9325;BME280;4701;51.566;6.776;2023-05-20T07:03:37;101891.34;;;12.68;75.76
9325;BME280;4701;51.566;6.776;2023-05-20T07:06:39;101884.13;;;12.79;76.05
9325;BME280;4701;51.566;6.776;2023-05-20T07:09:41;101884.00;;;12.91;76.24
9325;BME280;4701;51.566;6.776;2023-05-20T07:12:44;101879.22;;;13.03;75.52
9325;BME280;4701;51.566;6.776;2023-05-20T07:15:49;101881.88;;;13.14;75.30
9325;BME280;4701;51.566;6.776;2023-05-20T07:18:52;101870.50;;;13.27;74.65
9325;BME280;4701;51.566;6.776;2023-05-20T07:21:54;101872.84;;;13.41;74.41
9325;BME280;4701;51.566;6.776;2023-05-20T07:25:08;101887.47;;;13.51;73.78
9325;BME280;4701;51.566;6.776;2023-05-20T07:28:11;101883.75;;;13.62;73.84
9325;BME280;4701;51.566;6.776;2023-05-20T07:31:14;101881.94;;;13.73;72.86
9325;BME280;4701;51.566;6.776;2023-05-20T07:34:19;101881.78;;;13.85;72.16
9325;BME280;4701;51.566;6.776;2023-05-20T07:37:22;101873.66;;;13.95;71.50
9325;BME280;4701;51.566;6.776;2023-05-20T07:40:24;101877.53;;;14.04;71.16
9325;BME280;4701;51.566;6.776;2023-05-20T07:43:27;101868.03;;;14.12;70.77
9325;BME280;4701;51.566;6.776;2023-05-20T07:46:30;101866.69;;;14.19;70.59
9325;BME280;4701;51.566;6.776;2023-05-20T07:49:33;101868.94;;;14.27;70.05
9325;BME280;4701;51.566;6.776;2023-05-20T07:52:35;101865.97;;;14.34;70.14
9325;BME280;4701;51.566;6.776;2023-05-20T07:55:37;101864.66;;;14.42;69.56
9325;BME280;4701;51.566;6.776;2023-05-20T07:58:40;101864.69;;;14.47;69.58
9325;BME280;4701;51.566;6.776;2023-05-20T08:01:43;101863.66;;;14.53;68.85
9325;BME280;4701;51.566;6.776;2023-05-20T08:04:49;101867.25;;;14.58;68.90
9325;BME280;4701;51.566;6.776;2023-05-20T08:07:51;101866.16;;;14.64;69.00
9325;BME280;4701;51.566;6.776;2023-05-20T08:10:57;101863.47;;;14.69;68.54
9325;BME280;4701;51.566;6.776;2023-05-20T08:14:01;101864.03;;;14.76;68.49
9325;BME280;4701;51.566;6.776;2023-05-20T08:17:10;101859.66;;;14.81;67.96
9325;BME280;4701;51.566;6.776;2023-05-20T08:20:13;101864.09;;;14.87;67.83
9325;BME280;4701;51.566;6.776;2023-05-20T08:23:15;101846.25;;;14.89;67.86
9325;BME280;4701;51.566;6.776;2023-05-20T08:26:17;101848.75;;;14.96;67.61
9325;BME280;4701;51.566;6.776;2023-05-20T08:29:19;101852.34;;;15.01;67.46
9325;BME280;4701;51.566;6.776;2023-05-20T08:32:20;101858.97;;;15.05;67.45
9325;BME280;4701;51.566;6.776;2023-05-20T08:35:24;101855.38;;;15.10;67.21
9325;BME280;4701;51.566;6.776;2023-05-20T08:38:27;101857.31;;;15.14;67.22
9325;BME280;4701;51.566;6.776;2023-05-20T08:41:29;101858.44;;;15.19;67.16
9325;BME280;4701;51.566;6.776;2023-05-20T08:44:32;101857.59;;;15.23;66.79
9325;BME280;4701;51.566;6.776;2023-05-20T08:47:34;101857.91;;;15.27;66.97
9325;BME280;4701;51.566;6.776;2023-05-20T08:50:38;101851.06;;;15.29;66.64
9325;BME280;4701;51.566;6.776;2023-05-20T08:53:40;101847.22;;;15.35;67.00
9325;BME280;4701;51.566;6.776;2023-05-20T08:56:42;101845.59;;;15.39;66.74
9325;BME280;4701;51.566;6.776;2023-05-20T08:59:45;101849.44;;;15.43;66.60
9325;BME280;4701;51.566;6.776;2023-05-20T09:02:47;101844.75;;;15.49;66.08
9325;BME280;4701;51.566;6.776;2023-05-20T09:05:51;101845.03;;;15.52;66.33
9325;BME280;4701;51.566;6.776;2023-05-20T09:08:53;101847.00;;;15.57;66.49
9325;BME280;4701;51.566;6.776;2023-05-20T09:11:55;101839.03;;;15.61;66.24
9325;BME280;4701;51.566;6.776;2023-05-20T09:14:57;101839.03;;;15.66;66.07
9325;BME280;4701;51.566;6.776;2023-05-20T09:17:59;101836.56;;;15.69;65.83
9325;BME280;4701;51.566;6.776;2023-05-20T09:21:05;101826.69;;;15.73;66.11
9325;BME280;4701;51.566;6.776;2023-05-20T09:24:07;101846.19;;;15.77;66.41
9325;BME280;4701;51.566;6.776;2023-05-20T09:27:09;101835.22;;;15.82;66.42
9325;BME280;4701;51.566;6.776;2023-05-20T09:30:11;101834.38;;;15.86;66.40
9325;BME280;4701;51.566;6.776;2023-05-20T09:33:13;101840.97;;;15.91;66.37
9325;BME280;4701;51.566;6.776;2023-05-20T09:36:18;101840.13;;;15.95;66.09
9325;BME280;4701;51.566;6.776;2023-05-20T09:39:24;101826.94;;;16.02;66.25
9325;BME280;4701;51.566;6.776;2023-05-20T09:42:28;101827.22;;;16.06;66.11
9325;BME280;4701;51.566;6.776;2023-05-20T09:45:32;101832.69;;;16.11;65.84
9325;BME280;4701;51.566;6.776;2023-05-20T09:48:35;101831.06;;;16.15;65.86
9325;BME280;4701;51.566;6.776;2023-05-20T09:51:40;101836.81;;;16.18;65.77
9325;BME280;4701;51.566;6.776;2023-05-20T09:54:43;101826.91;;;16.22;65.69
9325;BME280;4701;51.566;6.776;2023-05-20T09:57:45;101833.22;;;16.28;65.77
9325;BME280;4701;51.566;6.776;2023-05-20T10:00:47;101839.81;;;16.32;65.37
9325;BME280;4701;51.566;6.776;2023-05-20T10:03:49;101835.66;;;16.35;65.31
9325;BME280;4701;51.566;6.776;2023-05-20T10:07:10;101824.13;;;16.38;65.19
9325;BME280;4701;51.566;6.776;2023-05-20T10:10:24;101821.66;;;16.41;64.67
9325;BME280;4701;51.566;6.776;2023-05-20T10:13:41;101826.28;;;16.46;64.39
9325;BME280;4701;51.566;6.776;2023-05-20T10:16:50;101828.50;;;16.49;64.26
9325;BME280;4701;51.566;6.776;2023-05-20T10:19:57;101828.19;;;16.50;63.94
9325;BME280;4701;51.566;6.776;2023-05-20T10:23:00;101832.31;;;16.53;63.84
9325;BME280;4701;51.566;6.776;2023-05-20T10:26:13;101826.53;;;16.54;63.79
9325;BME280;4701;51.566;6.776;2023-05-20T10:29:44;101819.94;;;16.55;63.99
9325;BME280;4701;51.566;6.776;2023-05-20T10:32:52;101815.81;;;16.58;63.96
9325;BME280;4701;51.566;6.776;2023-05-20T10:35:57;101807.84;;;16.61;64.17
9325;BME280;4701;51.566;6.776;2023-05-20T10:39:08;101805.63;;;16.63;63.95
9325;BME280;4701;51.566;6.776;2023-05-20T10:42:34;101815.53;;;16.64;63.87
9325;BME280;4701;51.566;6.776;2023-05-20T10:45:47;101805.91;;;16.67;63.70
9325;BME280;4701;51.566;6.776;2023-05-20T10:48:50;101808.34;;;16.69;64.01
9325;BME280;4701;51.566;6.776;2023-05-20T10:51:51;101797.88;;;16.71;64.15
9325;BME280;4701;51.566;6.776;2023-05-20T10:54:56;101798.44;;;16.73;63.97
9325;BME280;4701;51.566;6.776;2023-05-20T10:57:58;101802.84;;;16.74;64.01
9325;BME280;4701;51.566;6.776;2023-05-20T11:01:00;101786.88;;;16.76;63.69
9325;BME280;4701;51.566;6.776;2023-05-20T11:04:03;101783.81;;;16.77;63.67
9325;BME280;4701;51.566;6.776;2023-05-20T11:07:06;101787.09;;;16.79;63.66
9325;BME280;4701;51.566;6.776;2023-05-20T11:10:09;101778.56;;;16.81;63.78
9325;BME280;4701;51.566;6.776;2023-05-20T11:13:12;101785.44;;;16.83;64.07
9325;BME280;4701;51.566;6.776;2023-05-20T11:16:17;101773.31;;;16.84;64.37
9325;BME280;4701;51.566;6.776;2023-05-20T11:19:20;101780.44;;;16.90;64.21
9325;BME280;4701;51.566;6.776;2023-05-20T11:22:22;101784.28;;;16.94;64.36
9325;BME280;4701;51.566;6.776;2023-05-20T11:25:25;101782.06;;;16.96;64.26
9325;BME280;4701;51.566;6.776;2023-05-20T11:28:29;101779.56;;;17.00;64.18
9325;BME280;4701;51.566;6.776;2023-05-20T11:31:32;101782.84;;;17.02;63.97
9325;BME280;4701;51.566;6.776;2023-05-20T11:34:35;101779.00;;;17.03;63.82
9325;BME280;4701;51.566;6.776;2023-05-20T11:37:37;101772.09;;;17.06;63.88
9325;BME280;4701;51.566;6.776;2023-05-20T11:40:44;101768.78;;;17.09;64.04
9325;BME280;4701;51.566;6.776;2023-05-20T11:43:46;101771.22;;;17.10;64.13
9325;BME280;4701;51.566;6.776;2023-05-20T11:46:59;101756.88;;;17.13;64.40
9325;BME280;4701;51.566;6.776;2023-05-20T11:50:01;101759.09;;;17.16;64.28
9325;BME280;4701;51.566;6.776;2023-05-20T11:53:05;101748.56;;;17.18;64.29
9325;BME280;4701;51.566;6.776;2023-05-20T11:56:08;101741.69;;;17.21;64.37
9325;BME280;4701;51.566;6.776;2023-05-20T11:59:10;101726.25;;;17.25;64.57
9325;BME280;4701;51.566;6.776;2023-05-20T12:02:12;101723.44;;;17.30;64.33
9325;BME280;4701;51.566;6.776;2023-05-20T12:05:14;101722.88;;;17.33;64.11
9325;BME280;4701;51.566;6.776;2023-05-20T12:08:16;101728.59;;;17.36;64.14
9325;BME280;4701;51.566;6.776;2023-05-20T12:11:19;101709.56;;;17.40;64.19
9325;BME280;4701;51.566;6.776;2023-05-20T12:14:22;101719.72;;;17.45;64.06
9325;BME280;4701;51.566;6.776;2023-05-20T12:17:24;101709.78;;;17.49;64.21
9325;BME280;4701;51.566;6.776;2023-05-20T12:20:26;101711.38;;;17.55;64.04
9325;BME280;4701;51.566;6.776;2023-05-20T12:23:28;101718.47;;;17.61;64.06
9325;BME280;4701;51.566;6.776;2023-05-20T12:26:34;101715.41;;;17.67;64.35
9325;BME280;4701;51.566;6.776;2023-05-20T12:29:36;101710.66;;;17.73;64.65
9325;BME280;4701;51.566;6.776;2023-05-20T12:32:38;101706.44;;;17.81;64.66
9325;BME280;4701;51.566;6.776;2023-05-20T12:35:41;101704.16;;;17.88;64.64
9325;BME280;4701;51.566;6.776;2023-05-20T12:38:43;101700.75;;;17.96;64.47
9325;BME280;4701;51.566;6.776;2023-05-20T12:41:47;101693.50;;;18.05;63.80
9325;BME280;4701;51.566;6.776;2023-05-20T12:44:48;101694.78;;;18.12;63.50
9325;BME280;4701;51.566;6.776;2023-05-20T12:47:50;101698.84;;;18.20;63.08
9325;BME280;4701;51.566;6.776;2023-05-20T12:50:52;101689.09;;;18.28;62.68
9325;BME280;4701;51.566;6.776;2023-05-20T12:53:54;101683.50;;;18.33;62.54
9325;BME280;4701;51.566;6.776;2023-05-20T12:56:57;101697.75;;;18.40;61.88
9325;BME280;4701;51.566;6.776;2023-05-20T12:59:59;101694.13;;;18.44;61.59
9325;BME280;4701;51.566;6.776;2023-05-20T13:03:01;101699.56;;;18.49;61.24
9325;BME280;4701;51.566;6.776;2023-05-20T13:06:04;101691.19;;;18.54;61.02
9325;BME280;4701;51.566;6.776;2023-05-20T13:09:06;101687.31;;;18.61;60.96
9325;BME280;4701;51.566;6.776;2023-05-20T13:12:09;101671.47;;;18.66;60.57
9325;BME280;4701;51.566;6.776;2023-05-20T13:15:11;101677.22;;;18.70;60.80
9325;BME280;4701;51.566;6.776;2023-05-20T13:18:13;101668.88;;;18.75;60.97
9325;BME280;4701;51.566;6.776;2023-05-20T13:21:16;101664.06;;;18.80;60.54
9325;BME280;4701;51.566;6.776;2023-05-20T13:24:17;101656.31;;;18.82;60.52
9325;BME280;4701;51.566;6.776;2023-05-20T13:27:21;101657.38;;;18.86;60.04
9325;BME280;4701;51.566;6.776;2023-05-20T13:30:22;101653.69;;;18.91;59.96
9325;BME280;4701;51.566;6.776;2023-05-20T13:33:25;101655.88;;;18.94;59.81
9325;BME280;4701;51.566;6.776;2023-05-20T13:36:26;101655.25;;;18.97;60.09
9325;BME280;4701;51.566;6.776;2023-05-20T13:39:28;101650.78;;;19.01;58.55
9325;BME280;4701;51.566;6.776;2023-05-20T13:42:31;101650.47;;;19.03;58.96
9325;BME280;4701;51.566;6.776;2023-05-20T13:45:33;101650.69;;;19.06;59.51
9325;BME280;4701;51.566;6.776;2023-05-20T13:48:35;101655.59;;;19.09;59.65
9325;BME280;4701;51.566;6.776;2023-05-20T13:51:37;101643.16;;;19.12;59.48
9325;BME280;4701;51.566;6.776;2023-05-20T13:54:38;101629.53;;;19.15;59.21
9325;BME280;4701;51.566;6.776;2023-05-20T13:57:43;101632.00;;;19.17;58.57
9325;BME280;4701;51.566;6.776;2023-05-20T14:00:45;101628.63;;;19.20;58.54
9325;BME280;4701;51.566;6.776;2023-05-20T14:03:47;101632.72;;;19.22;58.68
9325;BME280;4701;51.566;6.776;2023-05-20T14:06:49;101620.25;;;19.25;59.35
9325;BME280;4701;51.566;6.776;2023-05-20T14:09:50;101612.19;;;19.28;59.27
9325;BME280;4701;51.566;6.776;2023-05-20T14:12:55;101607.47;;;19.29;59.16
9325;BME280;4701;51.566;6.776;2023-05-20T14:15:57;101618.72;;;19.33;58.91
9325;BME280;4701;51.566;6.776;2023-05-20T14:18:59;101612.06;;;19.34;58.05
9325;BME280;4701;51.566;6.776;2023-05-20T14:22:01;101604.28;;;19.36;57.12
9325;BME280;4701;51.566;6.776;2023-05-20T14:25:04;101583.00;;;19.36;57.55
9325;BME280;4701;51.566;6.776;2023-05-20T14:28:07;101590.69;;;19.39;57.75
9325;BME280;4701;51.566;6.776;2023-05-20T14:31:09;101600.94;;;19.39;57.61
9325;BME280;4701;51.566;6.776;2023-05-20T14:34:11;101594.78;;;19.42;57.42
9325;BME280;4701;51.566;6.776;2023-05-20T14:37:13;101600.81;;;19.44;57.88
9325;BME280;4701;51.566;6.776;2023-05-20T14:40:15;101596.94;;;19.45;57.59
9325;BME280;4701;51.566;6.776;2023-05-20T14:43:18;101604.94;;;19.46;57.37
9325;BME280;4701;51.566;6.776;2023-05-20T14:46:20;101602.47;;;19.45;57.15
9325;BME280;4701;51.566;6.776;2023-05-20T14:49:22;101602.16;;;19.46;56.75
9325;BME280;4701;51.566;6.776;2023-05-20T14:52:24;101594.69;;;19.47;57.05
9325;BME280;4701;51.566;6.776;2023-05-20T14:55:26;101591.13;;;19.46;57.28
9325;BME280;4701;51.566;6.776;2023-05-20T14:58:29;101592.78;;;19.47;57.23
9325;BME280;4701;51.566;6.776;2023-05-20T15:01:31;101575.34;;;19.47;57.32
9325;BME280;4701;51.566;6.776;2023-05-20T15:04:33;101582.56;;;19.48;57.40
9325;BME280;4701;51.566;6.776;2023-05-20T15:07:35;101577.50;;;19.50;56.90
9325;BME280;4701;51.566;6.776;2023-05-20T15:10:37;101581.09;;;19.50;56.61
9325;BME280;4701;51.566;6.776;2023-05-20T15:13:43;101577.22;;;19.51;57.01
9325;BME280;4701;51.566;6.776;2023-05-20T15:16:45;101576.59;;;19.54;57.38
9325;BME280;4701;51.566;6.776;2023-05-20T15:19:47;101574.34;;;19.56;57.38
9325;BME280;4701;51.566;6.776;2023-05-20T15:22:49;101580.38;;;19.58;56.60
9325;BME280;4701;51.566;6.776;2023-05-20T15:25:51;101578.97;;;19.61;56.46
9325;BME280;4701;51.566;6.776;2023-05-20T15:28:54;101582.53;;;19.61;56.94
9325;BME280;4701;51.566;6.776;2023-05-20T15:31:56;101586.13;;;19.62;57.07
9325;BME280;4701;51.566;6.776;2023-05-20T15:34:58;101577.53;;;19.63;56.30
9325;BME280;4701;51.566;6.776;2023-05-20T15:38:01;101591.34;;;19.63;56.22
9325;BME280;4701;51.566;6.776;2023-05-20T15:41:03;101593.78;;;19.65;56.17
9325;BME280;4701;51.566;6.776;2023-05-20T15:44:07;101592.19;;;19.64;56.17
9325;BME280;4701;51.566;6.776;2023-05-20T15:47:09;101583.88;;;19.64;56.18
9325;BME280;4701;51.566;6.776;2023-05-20T15:50:11;101580.09;;;19.60;55.80
9325;BME280;4701;51.566;6.776;2023-05-20T15:53:13;101580.38;;;19.58;55.52
9325;BME280;4701;51.566;6.776;2023-05-20T15:56:15;101577.09;;;19.56;56.44
9325;BME280;4701;51.566;6.776;2023-05-20T15:59:19;101574.66;;;19.55;56.47
9325;BME280;4701;51.566;6.776;2023-05-20T16:02:20;101573.84;;;19.54;56.48
9325;BME280;4701;51.566;6.776;2023-05-20T16:05:23;101558.69;;;19.52;56.55
9325;BME280;4701;51.566;6.776;2023-05-20T16:08:26;101565.31;;;19.51;56.18
9325;BME280;4701;51.566;6.776;2023-05-20T16:11:29;101563.19;;;19.48;56.25
9325;BME280;4701;51.566;6.776;2023-05-20T16:14:33;101565.41;;;19.46;56.35
9325;BME280;4701;51.566;6.776;2023-05-20T16:17:34;101561.81;;;19.45;56.91
9325;BME280;4701;51.566;6.776;2023-05-20T16:20:36;101559.97;;;19.41;56.55
9325;BME280;4701;51.566;6.776;2023-05-20T16:23:38;101556.72;;;19.39;57.40
9325;BME280;4701;51.566;6.776;2023-05-20T16:26:40;101569.72;;;19.38;57.77
9325;BME280;4701;51.566;6.776;2023-05-20T16:29:43;101568.38;;;19.36;57.92
9325;BME280;4701;51.566;6.776;2023-05-20T16:32:46;101565.06;;;19.34;57.50
9325;BME280;4701;51.566;6.776;2023-05-20T16:35:48;101564.56;;;19.32;57.30
9325;BME280;4701;51.566;6.776;2023-05-20T16:38:50;101569.06;;;19.27;57.22
9325;BME280;4701;51.566;6.776;2023-05-20T16:41:51;101569.38;;;19.26;56.55
9325;BME280;4701;51.566;6.776;2023-05-20T16:44:55;101564.16;;;19.24;56.53
9325;BME280;4701;51.566;6.776;2023-05-20T16:47:57;101553.19;;;19.19;55.88
9325;BME280;4701;51.566;6.776;2023-05-20T16:50:58;101561.78;;;19.18;56.84
9325;BME280;4701;51.566;6.776;2023-05-20T16:54:01;101558.50;;;19.16;56.69
9325;BME280;4701;51.566;6.776;2023-05-20T16:57:04;101564.66;;;19.13;57.02
9325;BME280;4701;51.566;6.776;2023-05-20T17:00:10;101563.31;;;19.10;57.08
9325;BME280;4701;51.566;6.776;2023-05-20T17:03:12;101576.59;;;19.08;57.28
9325;BME280;4701;51.566;6.776;2023-05-20T17:06:17;101571.69;;;19.05;57.63
9325;BME280;4701;51.566;6.776;2023-05-20T17:09:18;101586.94;;;19.03;57.24
9325;BME280;4701;51.566;6.776;2023-05-20T17:12:20;101588.34;;;19.00;57.10
9325;BME280;4701;51.566;6.776;2023-05-20T17:15:24;101592.53;;;18.98;57.35
9325;BME280;4701;51.566;6.776;2023-05-20T17:18:27;101596.72;;;18.95;57.76
9325;BME280;4701;51.566;6.776;2023-05-20T17:21:29;101593.44;;;18.93;57.81
9325;BME280;4701;51.566;6.776;2023-05-20T17:24:31;101590.47;;;18.89;57.96
9325;BME280;4701;51.566;6.776;2023-05-20T17:27:34;101591.91;;;18.87;57.84
9325;BME280;4701;51.566;6.776;2023-05-20T17:30:37;101598.84;;;18.84;57.99
9325;BME280;4701;51.566;6.776;2023-05-20T17:33:39;101596.66;;;18.81;57.91
9325;BME280;4701;51.566;6.776;2023-05-20T17:36:41;101606.06;;;18.80;57.98
9325;BME280;4701;51.566;6.776;2023-05-20T17:39:42;101605.88;;;18.77;57.96
9325;BME280;4701;51.566;6.776;2023-05-20T17:42:44;101600.94;;;18.74;58.16
9325;BME280;4701;51.566;6.776;2023-05-20T17:45:49;101596.84;;;18.71;58.28
9325;BME280;4701;51.566;6.776;2023-05-20T17:48:50;101601.31;;;18.67;58.43
9325;BME280;4701;51.566;6.776;2023-05-20T17:51:52;101596.38;;;18.64;58.14
9325;BME280;4701;51.566;6.776;2023-05-20T17:54:54;101595.06;;;18.62;58.29
9325;BME280;4701;51.566;6.776;2023-05-20T17:57:56;101586.56;;;18.58;58.54
9325;BME280;4701;51.566;6.776;2023-05-20T18:00:59;101603.41;;;18.57;58.64
9325;BME280;4701;51.566;6.776;2023-05-20T18:04:00;101595.72;;;18.53;58.83
9325;BME280;4701;51.566;6.776;2023-05-20T18:07:05;101599.88;;;18.51;58.84
9325;BME280;4701;51.566;6.776;2023-05-20T18:10:08;101605.19;;;18.47;58.94
9325;BME280;4701;51.566;6.776;2023-05-20T18:13:10;101603.84;;;18.45;58.91
9325;BME280;4701;51.566;6.776;2023-05-20T18:16:13;101598.91;;;18.42;59.12
9325;BME280;4701;51.566;6.776;2023-05-20T18:19:15;101601.97;;;18.40;59.10
9325;BME280;4701;51.566;6.776;2023-05-20T18:22:17;101599.00;;;18.37;59.35
9325;BME280;4701;51.566;6.776;2023-05-20T18:25:19;101601.25;;;18.35;59.18
9325;BME280;4701;51.566;6.776;2023-05-20T18:28:20;101597.94;;;18.33;59.20
9325;BME280;4701;51.566;6.776;2023-05-20T18:31:24;101592.19;;;18.29;59.61
9325;BME280;4701;51.566;6.776;2023-05-20T18:34:26;101597.22;;;18.27;59.67
9325;BME280;4701;51.566;6.776;2023-05-20T18:37:28;101602.19;;;18.25;59.77
9325;BME280;4701;51.566;6.776;2023-05-20T18:40:32;101596.44;;;18.22;59.69
9325;BME280;4701;51.566;6.776;2023-05-20T18:43:34;101597.06;;;18.19;59.70
9325;BME280;4701;51.566;6.776;2023-05-20T18:46:37;101591.00;;;18.17;59.82
9325;BME280;4701;51.566;6.776;2023-05-20T18:49:40;101591.59;;;18.13;60.24
9325;BME280;4701;51.566;6.776;2023-05-20T18:52:41;101604.06;;;18.11;60.07
9325;BME280;4701;51.566;6.776;2023-05-20T18:55:44;101598.00;;;18.09;60.25
9325;BME280;4701;51.566;6.776;2023-05-20T18:58:47;101600.53;;;18.05;60.23
9325;BME280;4701;51.566;6.776;2023-05-20T19:01:50;101596.13;;;18.04;60.38
9325;BME280;4701;51.566;6.776;2023-05-20T19:04:54;101606.66;;;18.02;60.52
9325;BME280;4701;51.566;6.776;2023-05-20T19:07:56;101616.31;;;18.00;60.45
9325;BME280;4701;51.566;6.776;2023-05-20T19:10:59;101621.31;;;17.98;60.66
9325;BME280;4701;51.566;6.776;2023-05-20T19:14:01;101619.97;;;17.95;60.68
9325;BME280;4701;51.566;6.776;2023-05-20T19:17:05;101618.63;;;17.93;60.58
9325;BME280;4701;51.566;6.776;2023-05-20T19:20:08;101619.75;;;17.92;60.80
9325;BME280;4701;51.566;6.776;2023-05-20T19:23:10;101615.91;;;17.88;60.95
9325;BME280;4701;51.566;6.776;2023-05-20T19:26:12;101614.25;;;17.87;60.97
9325;BME280;4701;51.566;6.776;2023-05-20T19:29:13;101620.94;;;17.86;61.00
9325;BME280;4701;51.566;6.776;2023-05-20T19:32:17;101616.00;;;17.83;60.94
9325;BME280;4701;51.566;6.776;2023-05-20T19:35:19;101614.63;;;17.80;61.32
9325;BME280;4701;51.566;6.776;2023-05-20T19:38:20;101609.41;;;17.78;61.32
9325;BME280;4701;51.566;6.776;2023-05-20T19:41:22;101614.41;;;17.76;61.33
9325;BME280;4701;51.566;6.776;2023-05-20T19:44:24;101617.75;;;17.73;61.41
9325;BME280;4701;51.566;6.776;2023-05-20T19:47:27;101617.22;;;17.71;61.52
9325;BME280;4701;51.566;6.776;2023-05-20T19:50:29;101616.38;;;17.71;61.73
9325;BME280;4701;51.566;6.776;2023-05-20T19:53:31;101622.50;;;17.68;61.67
9325;BME280;4701;51.566;6.776;2023-05-20T19:56:33;101621.16;;;17.65;61.89
9325;BME280;4701;51.566;6.776;2023-05-20T19:59:34;101615.09;;;17.63;61.91
9325;BME280;4701;51.566;6.776;2023-05-20T20:02:38;101616.78;;;17.59;61.95
9325;BME280;4701;51.566;6.776;2023-05-20T20:05:40;101614.59;;;17.56;61.91
9325;BME280;4701;51.566;6.776;2023-05-20T20:08:42;101616.00;;;17.54;62.04
9325;BME280;4701;51.566;6.776;2023-05-20T20:11:45;101617.44;;;17.51;62.39
9325;BME280;4701;51.566;6.776;2023-05-20T20:14:47;101607.78;;;17.49;62.18
9325;BME280;4701;51.566;6.776;2023-05-20T20:17:50;101613.06;;;17.45;62.51
9325;BME280;4701;51.566;6.776;2023-05-20T20:20:52;101619.16;;;17.42;62.48
9325;BME280;4701;51.566;6.776;2023-05-20T20:23:54;101618.09;;;17.38;62.57
9325;BME280;4701;51.566;6.776;2023-05-20T20:26:55;101617.56;;;17.36;62.42
9325;BME280;4701;51.566;6.776;2023-05-20T20:29:57;101622.03;;;17.32;62.64
9325;BME280;4701;51.566;6.776;2023-05-20T20:33:00;101628.09;;;17.29;62.75
9325;BME280;4701;51.566;6.776;2023-05-20T20:36:05;101628.97;;;17.24;62.72
9325;BME280;4701;51.566;6.776;2023-05-20T20:39:08;101625.16;;;17.20;62.85
9325;BME280;4701;51.566;6.776;2023-05-20T20:42:18;101621.06;;;17.18;62.81
9325;BME280;4701;51.566;6.776;2023-05-20T20:45:21;101612.53;;;17.14;63.00
9325;BME280;4701;51.566;6.776;2023-05-20T20:48:25;101614.75;;;17.12;63.07
9325;BME280;4701;51.566;6.776;2023-05-20T20:51:27;101613.44;;;17.10;63.25
9325;BME280;4701;51.566;6.776;2023-05-20T20:54:28;101609.31;;;17.07;63.51
9325;BME280;4701;51.566;6.776;2023-05-20T20:57:32;101618.97;;;17.05;63.52
